Time;durP1;ratioP1;P1;durP2;ratioP2;P2;SDS_P1;SDS_P2;PMS_P1;PMS_P2;Temp;Humidity;BMP_temperature;BMP_pressure;BME280_temperature;BME280_humidity;BME280_pressure;Samples;Min_cycle;Max_cycle;Signal;HPM_P1;HPM_P2
2023/09/16 00:01:48;;;;;;;9.00;6.00;;;;;;;22.66;67.83;100053.34;5079878;28;20238;-65
2023/09/16 00:04:13;;;;;;;7.10;5.57;;;;;;;22.67;67.82;100054.97;5094168;28;20271;-65
2023/09/16 00:06:39;;;;;;;6.60;5.50;;;;;;;22.66;67.58;100056.22;5112351;28;20166;-65
2023/09/16 00:09:04;;;;;;;6.20;5.03;;;;;;;22.66;67.70;100053.34;5096703;28;20174;-65
2023/09/16 00:11:30;;;;;;;5.73;4.70;;;;;;;22.64;67.21;100049.25;5093344;28;20217;-65
2023/09/16 00:13:56;;;;;;;8.30;5.60;;;;;;;22.66;67.72;100059.09;5078189;28;20291;-65
2023/09/16 00:16:21;;;;;;;8.50;5.60;;;;;;;22.65;67.14;100043.09;5083991;28;20794;-65
2023/09/16 00:18:47;;;;;;;5.10;4.43;;;;;;;22.65;67.34;100048.84;5091677;28;20163;-65
2023/09/16 00:21:14;;;;;;;5.63;4.60;;;;;;;22.65;67.27;100045.97;5082679;28;20179;-66
2023/09/16 00:23:39;;;;;;;8.93;5.83;;;;;;;22.66;67.50;100049.63;5101058;28;20189;-65
2023/09/16 00:26:05;;;;;;;7.23;5.80;;;;;;;22.66;66.99;100052.50;5089977;28;20442;-63
2023/09/16 00:28:31;;;;;;;6.17;4.90;;;;;;;22.66;66.91;100049.63;5065003;28;20200;-63
2023/09/16 00:30:57;;;;;;;6.60;5.33;;;;;;;22.63;67.16;100051.28;5090893;28;20626;-62
2023/09/16 00:33:23;;;;;;;5.83;4.80;;;;;;;22.62;67.57;100058.28;5091766;28;20189;-62
2023/09/16 00:35:48;;;;;;;6.47;5.10;;;;;;;22.63;67.17;100051.28;5109029;28;20431;-62
2023/09/16 00:38:15;;;;;;;7.93;5.33;;;;;;;22.61;66.76;100058.69;5111218;28;20200;-63
2023/09/16 00:40:41;;;;;;;7.00;5.50;;;;;;;22.60;67.11;100060.78;5099806;28;20261;-63
2023/09/16 00:43:06;;;;;;;7.13;5.60;;;;;;;22.59;67.09;100059.13;5073208;28;20401;-63
2023/09/16 00:45:33;;;;;;;6.53;5.20;;;;;;;22.60;67.24;100063.66;5073483;28;20178;-63
2023/09/16 00:47:58;;;;;;;7.70;5.40;;;;;;;22.60;66.91;100055.00;5092174;28;20186;-63
2023/09/16 00:50:24;;;;;;;6.93;5.17;;;;;;;22.61;67.00;100059.53;5090293;28;21423;-62
2023/09/16 00:52:54;;;;;;;6.37;4.87;;;;;;;22.61;66.83;100059.53;5091975;28;20279;-62
2023/09/16 00:55:20;;;;;;;7.53;5.50;;;;;;;22.61;67.06;100059.53;5081019;28;20191;-62
2023/09/16 00:57:47;;;;;;;7.23;5.20;;;;;;;22.61;66.84;100053.78;5090069;28;20424;-63
2023/09/16 01:00:37;;;;;;;6.10;4.50;;;;;;;22.61;66.61;100059.53;5091452;28;20166;-65
2023/09/16 01:03:04;;;;;;;7.20;4.83;;;;;;;22.61;67.13;100070.19;5090809;28;20412;-65
2023/09/16 01:05:30;;;;;;;6.40;4.90;;;;;;;22.61;66.10;100058.69;5093075;28;20518;-65
2023/09/16 01:07:56;;;;;;;7.57;4.50;;;;;;;22.60;66.56;100063.66;5090743;28;20511;-65
2023/09/16 01:10:22;;;;;;;7.23;4.70;;;;;;;22.60;66.89;100066.53;5074338;28;20198;-65
2023/09/16 01:12:48;;;;;;;7.07;4.57;;;;;;;22.61;66.43;100064.44;5090275;28;20230;-65
2023/09/16 01:15:14;;;;;;;5.00;4.33;;;;;;;22.61;66.63;100070.19;5055755;28;20431;-65
2023/09/16 01:17:55;;;;;;;6.00;4.83;;;;;;;22.59;66.35;100066.94;5071597;28;20432;-65
2023/09/16 01:20:21;;;;;;;7.17;5.20;;;;;;;22.59;66.26;100069.81;5090819;28;20789;-65
2023/09/16 01:22:46;;;;;;;11.47;4.63;;;;;;;22.58;66.62;100063.22;5100444;28;20435;-65
2023/09/16 01:25:15;;;;;;;7.03;4.87;;;;;;;22.57;66.48;100064.47;5078359;28;20240;-65
2023/09/16 01:27:41;;;;;;;5.97;4.30;;;;;;;22.57;66.26;100069.41;5057184;28;20183;-65
2023/09/16 01:30:07;;;;;;;5.57;4.00;;;;;;;22.58;66.77;100071.84;5090504;28;20420;-65
2023/09/16 01:32:43;;;;;;;7.00;4.30;;;;;;;22.56;66.74;100068.59;5090188;28;20455;-65
2023/09/16 01:35:10;;;;;;;5.37;4.50;;;;;;;22.57;66.46;100070.22;5055463;28;20154;-65
2023/09/16 01:37:36;;;;;;;5.10;4.57;;;;;;;22.57;66.54;100070.22;5095389;28;20441;-65
2023/09/16 01:40:05;;;;;;;5.53;4.00;;;;;;;22.57;66.60;100069.41;5107966;28;20419;-65
2023/09/16 01:42:30;;;;;;;6.97;4.93;;;;;;;22.56;66.60;100077.22;5074259;28;20185;-65
2023/09/16 01:44:56;;;;;;;5.83;3.93;;;;;;;22.56;66.17;100082.97;5055572;28;20499;-65
2023/09/16 01:47:21;;;;;;;9.73;5.10;;;;;;;22.55;66.47;100078.47;5089399;28;20163;-65
2023/09/16 01:49:47;;;;;;;6.57;4.57;;;;;;;22.55;66.46;100084.22;5091645;28;20534;-65
2023/09/16 01:52:12;;;;;;;5.40;4.47;;;;;;;22.56;66.03;100079.25;5070207;28;20221;-65
2023/09/16 01:54:38;;;;;;;5.37;4.37;;;;;;;22.56;66.29;100085.84;5092398;28;20175;-65
2023/09/16 01:57:03;;;;;;;5.50;4.40;;;;;;;22.55;66.26;100086.25;5089826;28;20170;-65
2023/09/16 01:59:29;;;;;;;7.93;4.80;;;;;;;22.55;65.55;100092.00;5088118;28;20486;-65
2023/09/16 02:01:54;;;;;;;6.17;4.87;;;;;;;22.53;66.56;100083.78;5069597;28;20163;-65
2023/09/16 02:04:20;;;;;;;7.30;4.73;;;;;;;22.55;66.35;100094.88;5079615;28;20182;-65
2023/09/16 02:06:46;;;;;;;5.90;4.50;;;;;;;22.53;66.11;100092.41;5079527;28;20180;-65
2023/09/16 02:09:12;;;;;;;5.67;4.30;;;;;;;22.53;66.64;100092.41;5087764;28;20178;-65
2023/09/16 02:11:38;;;;;;;7.20;5.53;;;;;;;22.53;66.05;100092.41;5077611;28;20463;-65
2023/09/16 02:14:04;;;;;;;7.20;4.83;;;;;;;22.52;65.92;100096.53;5069479;28;20771;-65
2023/09/16 02:16:30;;;;;;;6.70;4.87;;;;;;;22.52;65.81;100090.78;5088789;28;20712;-65
2023/09/16 02:18:56;;;;;;;6.67;4.87;;;;;;;22.50;65.59;100099.00;5110008;28;20480;-65
2023/09/16 02:21:22;;;;;;;5.93;5.03;;;;;;;22.48;66.16;100098.59;5095497;28;20421;-65
2023/09/16 02:23:48;;;;;;;5.30;4.70;;;;;;;22.51;66.08;100091.19;5086463;28;20190;-65
2023/09/16 02:26:13;;;;;;;7.00;4.87;;;;;;;22.50;66.34;100095.31;5083553;28;20965;-65
2023/09/16 02:28:40;;;;;;;10.07;4.87;;;;;;;22.49;66.33;100097.38;5090518;28;20269;-65
2023/09/16 02:31:06;;;;;;;6.30;4.87;;;;;;;22.48;65.93;100094.91;5109192;28;20239;-65
2023/09/16 02:33:32;;;;;;;6.63;5.20;;;;;;;22.48;66.13;100106.41;5104168;28;21299;-65
2023/09/16 02:35:57;;;;;;;6.40;4.80;;;;;;;22.46;66.33;100097.34;5088266;28;20522;-65
2023/09/16 02:38:23;;;;;;;6.03;5.20;;;;;;;22.46;65.97;100106.81;5088515;28;20246;-65
2023/09/16 02:40:48;;;;;;;6.57;4.93;;;;;;;22.45;66.07;100096.56;5072142;28;20190;-65
2023/09/16 02:43:14;;;;;;;6.00;5.17;;;;;;;22.46;65.88;100103.94;5053339;28;20250;-65
2023/09/16 02:45:42;;;;;;;7.63;4.93;;;;;;;22.45;65.57;100102.31;5088926;28;20553;-65
2023/09/16 02:48:08;;;;;;;9.43;4.77;;;;;;;22.44;65.78;100100.66;5091799;28;20154;-65
2023/09/16 02:50:37;;;;;;;7.70;5.10;;;;;;;22.45;65.42;100095.72;5109910;28;20418;-65
2023/09/16 02:53:02;;;;;;;8.43;5.10;;;;;;;22.44;66.06;100100.66;5073362;28;20284;-65
2023/09/16 02:55:28;;;;;;;6.90;5.10;;;;;;;22.45;65.69;100102.31;5075558;28;21134;-65
2023/09/16 02:57:54;;;;;;;6.13;4.60;;;;;;;22.45;65.77;100089.97;5069247;28;20209;-65
2023/09/16 03:00:19;;;;;;;7.13;5.07;;;;;;;22.45;65.26;100093.69;5069265;28;20187;-65
2023/09/16 03:02:49;;;;;;;6.60;4.80;;;;;;;22.46;65.32;100097.34;5105131;28;20906;-65
2023/09/16 03:05:14;;;;;;;5.50;4.70;;;;;;;22.44;65.60;100089.16;5109509;28;20178;-65
2023/09/16 03:07:40;;;;;;;7.90;4.97;;;;;;;22.43;65.70;100081.72;5109717;28;20411;-65
2023/09/16 03:10:05;;;;;;;5.80;4.60;;;;;;;22.44;65.42;100077.66;5101214;28;20200;-65
2023/09/16 03:12:31;;;;;;;8.40;5.00;;;;;;;22.43;65.32;100084.59;5067929;28;20218;-65
2023/09/16 03:14:56;;;;;;;7.57;5.40;;;;;;;22.43;65.24;100084.59;5068270;28;20376;-65
2023/09/16 03:17:22;;;;;;;7.40;4.83;;;;;;;22.43;65.47;100080.91;5084039;28;20185;-62
2023/09/16 03:19:47;;;;;;;6.83;5.17;;;;;;;22.43;65.37;100078.84;5095309;28;20571;-63
2023/09/16 03:22:12;;;;;;;8.40;4.90;;;;;;;22.41;64.98;100074.72;5078004;28;20625;-63
2023/09/16 03:24:38;;;;;;;7.20;4.97;;;;;;;22.41;65.26;100072.69;5087700;28;20186;-62
2023/09/16 03:27:04;;;;;;;7.33;4.90;;;;;;;22.41;65.44;100074.72;5088351;28;20150;-62
2023/09/16 03:29:29;;;;;;;5.00;4.40;;;;;;;22.40;65.20;100073.91;5073749;28;20673;-63
2023/09/16 03:31:55;;;;;;;6.23;4.77;;;;;;;22.40;64.91;100070.22;5087946;28;20665;-62
2023/09/16 03:34:20;;;;;;;7.10;4.63;;;;;;;22.39;65.09;100066.53;5072641;28;20197;-63
2023/09/16 03:36:45;;;;;;;8.20;5.70;;;;;;;22.39;65.33;100063.66;5073691;28;20932;-62
2023/09/16 03:39:11;;;;;;;5.77;4.50;;;;;;;22.39;64.99;100057.91;5093611;28;20236;-62
2023/09/16 03:41:37;;;;;;;5.50;4.10;;;;;;;22.40;65.08;100050.06;5092049;28;20178;-62
2023/09/16 03:44:03;;;;;;;7.33;4.90;;;;;;;22.38;64.60;100052.56;5077524;28;20189;-63
2023/09/16 03:46:29;;;;;;;7.30;4.90;;;;;;;22.37;64.77;100048.84;5103374;28;20420;-63
2023/09/16 03:48:55;;;;;;;6.00;4.17;;;;;;;22.37;65.17;100042.28;5091072;28;20408;-62
2023/09/16 03:51:20;;;;;;;4.97;4.40;;;;;;;22.37;64.77;100051.72;5107035;28;20185;-62
2023/09/16 03:53:45;;;;;;;6.50;4.80;;;;;;;22.36;64.93;100046.38;5093710;28;20185;-62
2023/09/16 03:56:11;;;;;;;5.30;4.37;;;;;;;22.35;64.46;100042.69;5091839;28;20186;-62
2023/09/16 03:58:37;;;;;;;6.43;4.10;;;;;;;22.35;64.68;100039.81;5071497;28;20240;-63
2023/09/16 04:01:02;;;;;;;7.03;4.03;;;;;;;22.34;64.66;100038.19;5081861;28;20428;-63
2023/09/16 04:03:29;;;;;;;6.53;4.20;;;;;;;22.33;64.75;100048.03;5093623;28;20182;-62
2023/09/16 04:05:57;;;;;;;4.87;3.67;;;;;;;22.33;65.03;100038.59;5071805;28;20185;-62
2023/09/16 04:08:23;;;;;;;5.10;3.90;;;;;;;22.33;64.55;100029.97;5071665;28;21105;-62
2023/09/16 04:10:49;;;;;;;5.47;3.93;;;;;;;22.32;64.71;100032.00;5077714;28;20453;-63
2023/09/16 04:13:14;;;;;;;5.07;3.57;;;;;;;22.32;64.75;100029.13;5071694;28;20242;-63
2023/09/16 04:15:39;;;;;;;5.50;4.07;;;;;;;22.33;64.52;100024.22;5071774;28;20159;-62
2023/09/16 04:18:05;;;;;;;5.50;4.13;;;;;;;22.32;64.28;100026.25;5084775;28;20231;-63
2023/09/16 04:20:31;;;;;;;6.43;4.33;;;;;;;22.32;64.14;100023.38;5093751;28;20578;-62
2023/09/16 04:22:56;;;;;;;4.80;3.80;;;;;;;22.31;64.19;100021.75;5090279;28;20178;-62
2023/09/16 04:25:22;;;;;;;5.33;3.63;;;;;;;22.31;64.32;100027.50;5096864;28;20235;-64
2023/09/16 04:27:47;;;;;;;5.63;3.57;;;;;;;22.31;64.42;100016.00;5111050;28;20177;-65
2023/09/16 04:30:13;;;;;;;5.43;4.03;;;;;;;22.30;64.34;100025.84;5110352;28;20249;-65
2023/09/16 04:32:40;;;;;;;6.20;3.73;;;;;;;22.30;64.39;100022.97;5110363;28;20186;-65
2023/09/16 04:35:06;;;;;;;6.53;3.37;;;;;;;22.30;64.56;100033.66;5101687;28;20177;-65
2023/09/16 04:37:32;;;;;;;5.20;3.17;;;;;;;22.28;64.09;100028.31;5072171;28;20555;-65
2023/09/16 04:39:57;;;;;;;4.60;3.90;;;;;;;22.29;63.83;100035.72;5072320;28;20408;-65
2023/09/16 04:42:29;;;;;;;5.30;3.43;;;;;;;22.27;64.40;100035.31;5090405;28;20957;-65
2023/09/16 04:44:54;;;;;;;5.73;3.77;;;;;;;22.26;64.32;100039.41;5094119;28;20661;-65
2023/09/16 04:47:21;;;;;;;5.57;3.77;;;;;;;22.27;64.02;100043.94;5089207;28;20424;-65
2023/09/16 04:49:48;;;;;;;4.60;3.50;;;;;;;22.27;63.95;100049.69;5074318;28;20214;-65
2023/09/16 04:52:13;;;;;;;4.70;3.80;;;;;;;22.27;64.00;100038.19;5111726;28;20451;-65
2023/09/16 04:54:40;;;;;;;5.47;3.83;;;;;;;22.27;63.63;100037.38;5091476;28;21133;-65
2023/09/16 04:57:06;;;;;;;5.20;2.70;;;;;;;22.26;63.67;100027.91;5076910;28;20209;-65
2023/09/16 04:59:32;;;;;;;4.23;3.47;;;;;;;22.25;63.99;100034.91;5076152;28;20526;-65
2023/09/16 05:01:58;;;;;;;4.70;3.07;;;;;;;22.26;63.96;100041.47;5095479;28;20235;-65
2023/09/16 05:04:24;;;;;;;4.87;3.30;;;;;;;22.25;63.65;100034.91;5072481;28;20881;-65
2023/09/16 05:06:49;;;;;;;5.10;3.37;;;;;;;22.25;63.80;100036.94;5090623;28;20442;-65
2023/09/16 05:09:15;;;;;;;4.67;3.90;;;;;;;22.23;64.09;100031.59;5090292;28;20158;-65
2023/09/16 05:11:40;;;;;;;5.10;3.40;;;;;;;22.24;64.04;100033.28;5092429;28;20229;-65
2023/09/16 05:14:06;;;;;;;5.20;3.60;;;;;;;22.24;63.81;100021.75;5089845;28;20257;-65
2023/09/16 05:16:31;;;;;;;4.10;3.40;;;;;;;22.25;63.85;100031.19;5090403;28;20155;-65
2023/09/16 05:18:57;;;;;;;6.30;3.03;;;;;;;22.25;63.84;100031.19;5090613;28;20180;-65
2023/09/16 05:21:22;;;;;;;5.27;3.60;;;;;;;22.24;63.37;100027.50;5090596;28;20174;-65
2023/09/16 05:23:53;;;;;;;5.40;3.73;;;;;;;22.23;63.41;100022.16;5092451;28;20178;-65
2023/09/16 05:26:18;;;;;;;5.77;3.67;;;;;;;22.22;63.67;100020.53;5071753;28;20159;-65
2023/09/16 05:28:44;;;;;;;4.10;3.40;;;;;;;22.23;63.60;100022.16;5089498;28;20423;-65
2023/09/16 05:31:10;;;;;;;9.70;3.80;;;;;;;22.21;63.24;100016.81;5089565;28;20181;-65
2023/09/16 05:33:35;;;;;;;5.77;3.63;;;;;;;22.21;63.44;100022.56;5092105;28;20208;-65
2023/09/16 05:36:00;;;;;;;4.40;3.17;;;;;;;22.21;63.79;100025.44;5090446;28;20175;-62
2023/09/16 05:38:26;;;;;;;4.87;3.90;;;;;;;22.21;63.26;100028.31;5092549;28;20182;-62
2023/09/16 05:40:51;;;;;;;4.80;3.67;;;;;;;22.22;63.63;100029.16;5090215;28;20189;-62
2023/09/16 05:43:17;;;;;;;3.73;3.23;;;;;;;22.21;63.62;100021.75;5090410;28;20174;-62
2023/09/16 05:45:43;;;;;;;4.30;3.20;;;;;;;22.22;63.50;100024.22;5090168;28;20568;-62
2023/09/16 05:48:09;;;;;;;4.60;3.70;;;;;;;22.22;63.22;100023.41;5102475;28;20190;-63
2023/09/16 05:50:34;;;;;;;4.50;3.73;;;;;;;22.21;63.32;100028.31;5047872;28;20433;-63
2023/09/16 05:53:03;;;;;;;7.43;3.67;;;;;;;22.21;63.28;100033.25;5087956;28;20221;-62
2023/09/16 05:55:29;;;;;;;3.87;3.10;;;;;;;22.20;63.99;100038.19;5071914;28;20195;-62
2023/09/16 05:57:54;;;;;;;5.70;4.60;;;;;;;22.20;63.45;100038.19;5088894;28;20428;-62
2023/09/16 06:00:19;;;;;;;7.30;4.70;;;;;;;22.19;63.64;100042.31;5090088;28;20167;-62
2023/09/16 06:02:45;;;;;;;5.73;3.80;;;;;;;22.20;63.91;100049.69;5086676;28;20151;-62
2023/09/16 06:05:10;;;;;;;5.33;4.03;;;;;;;22.21;63.36;100050.50;5089775;28;20529;-62
2023/09/16 06:07:39;;;;;;;8.40;4.50;;;;;;;22.20;63.31;100043.94;5090989;28;20174;-62
2023/09/16 06:10:06;;;;;;;4.60;3.67;;;;;;;22.20;63.32;100049.69;5069730;28;20198;-62
2023/09/16 06:12:33;;;;;;;8.00;4.57;;;;;;;22.21;63.55;100050.50;5091563;28;20950;-62
2023/09/16 06:14:58;;;;;;;8.57;4.03;;;;;;;22.19;63.57;100042.31;5108603;28;20412;-63
2023/09/16 06:17:24;;;;;;;5.10;3.97;;;;;;;22.21;63.58;100039.00;5082497;28;20830;-62
2023/09/16 06:19:54;;;;;;;10.97;4.20;;;;;;;22.20;63.86;100041.06;5110228;28;20305;-62
2023/09/16 06:22:23;;;;;;;6.30;4.40;;;;;;;22.19;63.62;100045.19;5110089;28;20620;-62
2023/09/16 06:24:48;;;;;;;7.37;5.03;;;;;;;22.17;63.68;100047.63;5091927;28;20472;-62
2023/09/16 06:27:14;;;;;;;6.13;4.57;;;;;;;22.17;63.45;100053.38;5089809;28;20437;-62
2023/09/16 06:29:41;;;;;;;6.47;5.40;;;;;;;22.15;64.14;100052.16;5051779;28;20190;-62
2023/09/16 06:32:07;;;;;;;8.13;5.00;;;;;;;22.14;63.77;100056.28;5079677;28;20464;-62
2023/09/16 06:34:33;;;;;;;6.50;4.87;;;;;;;22.15;63.78;100063.66;5089539;28;20463;-62
2023/09/16 06:36:59;;;;;;;7.20;5.80;;;;;;;22.12;63.80;100071.06;5077180;28;20171;-62
2023/09/16 06:39:25;;;;;;;7.87;5.50;;;;;;;22.12;64.39;100076.81;5089834;28;20314;-62
2023/09/16 06:41:50;;;;;;;7.50;5.37;;;;;;;22.10;63.84;100070.66;5089289;28;20526;-62
2023/09/16 06:44:16;;;;;;;7.37;5.60;;;;;;;22.12;64.64;100079.69;5090015;28;20866;-62
2023/09/16 06:46:43;;;;;;;8.20;5.50;;;;;;;22.11;64.28;100069.41;5075774;28;20190;-62
2023/09/16 06:49:09;;;;;;;7.37;5.90;;;;;;;22.12;63.97;100062.44;5051403;28;20914;-62
2023/09/16 06:51:34;;;;;;;7.47;5.33;;;;;;;22.13;65.14;100063.25;5091848;28;20436;-63
2023/09/16 06:53:59;;;;;;;7.37;4.97;;;;;;;22.13;64.93;100060.38;5089425;28;20219;-62
2023/09/16 06:56:25;;;;;;;8.73;5.87;;;;;;;22.14;64.64;100056.28;5089724;28;20179;-62
2023/09/16 06:58:50;;;;;;;10.63;6.20;;;;;;;22.14;64.47;100059.97;5089321;28;20226;-62
2023/09/16 07:01:16;;;;;;;7.93;6.03;;;;;;;22.15;65.16;100057.91;5085588;28;20193;-62
2023/09/16 07:03:41;;;;;;;8.33;5.83;;;;;;;22.15;64.73;100063.66;5089304;28;20186;-62
2023/09/16 07:06:07;;;;;;;9.67;5.70;;;;;;;22.13;65.03;100066.13;5067301;28;20218;-62
2023/09/16 07:08:32;;;;;;;7.43;5.30;;;;;;;22.14;65.61;100067.78;5050893;28;20176;-62
2023/09/16 07:10:58;;;;;;;7.73;5.40;;;;;;;22.13;65.61;100058.31;5091222;28;20208;-62
2023/09/16 07:13:23;;;;;;;7.37;5.37;;;;;;;22.15;66.00;100060.78;5113633;28;20851;-63
2023/09/16 07:15:54;;;;;;;9.30;6.23;;;;;;;22.15;66.28;100061.63;5092566;28;20182;-62
2023/09/16 07:18:21;;;;;;;7.70;5.13;;;;;;;22.15;65.80;100057.91;5102233;28;20213;-62
2023/09/16 07:20:50;;;;;;;8.57;5.43;;;;;;;22.17;66.28;100059.13;5074882;28;20408;-62
2023/09/16 07:23:15;;;;;;;7.97;5.80;;;;;;;22.15;65.93;100061.63;5077485;28;20197;-62
2023/09/16 07:25:41;;;;;;;6.10;4.93;;;;;;;22.15;66.46;100069.41;5089356;28;20432;-62
2023/09/16 07:28:07;;;;;;;9.53;7.03;;;;;;;22.13;66.50;100061.19;5072639;28;20176;-62
2023/09/16 07:30:33;;;;;;;9.00;7.20;;;;;;;22.13;66.96;100069.00;5056418;28;20183;-62
2023/09/16 07:32:59;;;;;;;8.93;5.70;;;;;;;22.11;66.97;100063.66;5110837;28;20522;-62
2023/09/16 07:35:24;;;;;;;9.03;6.47;;;;;;;22.13;67.45;100066.13;5113294;28;20419;-62
2023/09/16 07:37:50;;;;;;;9.27;6.57;;;;;;;22.14;67.91;100062.03;5100633;28;20186;-62
2023/09/16 07:40:16;;;;;;;6.97;5.57;;;;;;;22.14;67.58;100065.72;5064455;28;20187;-62
2023/09/16 07:42:41;;;;;;;7.10;5.97;;;;;;;22.15;67.41;100064.50;5074660;28;20439;-62
2023/09/16 07:45:07;;;;;;;10.53;6.70;;;;;;;22.15;68.21;100069.41;5079049;28;20197;-63
2023/09/16 07:47:32;;;;;;;11.33;6.77;;;;;;;22.01;68.74;100070.22;5074213;28;20166;-62
2023/09/16 07:49:58;;;;;;;8.40;6.90;;;;;;;22.10;68.52;100070.66;5085711;28;20626;-62
2023/09/16 07:52:23;;;;;;;7.87;6.13;;;;;;;22.12;68.36;100076.81;5093641;28;20213;-62
2023/09/16 07:54:49;;;;;;;10.60;7.30;;;;;;;22.14;68.98;100064.91;5073343;28;20200;-62
2023/09/16 07:57:14;;;;;;;10.20;7.27;;;;;;;22.13;68.59;100072.69;5090992;28;20255;-62
2023/09/16 07:59:39;;;;;;;8.40;6.50;;;;;;;22.04;69.75;100078.06;5074199;28;20451;-62
2023/09/16 08:02:05;;;;;;;10.37;7.20;;;;;;;22.10;69.96;100073.53;5089239;28;20193;-62
2023/09/16 08:04:31;;;;;;;8.33;7.07;;;;;;;21.89;70.65;100076.41;5070107;28;20214;-62
2023/09/16 08:06:57;;;;;;;10.80;7.70;;;;;;;22.03;69.93;100085.00;5090813;28;20202;-62
2023/09/16 08:09:23;;;;;;;10.50;7.40;;;;;;;22.11;69.91;100091.59;5092870;28;20179;-62
2023/09/16 08:11:48;;;;;;;11.47;7.60;;;;;;;22.06;70.18;100101.44;5069148;28;20527;-62
2023/09/16 08:14:14;;;;;;;9.07;6.80;;;;;;;22.00;70.90;100097.34;5054047;28;20924;-62
2023/09/16 08:16:39;;;;;;;11.60;7.70;;;;;;;22.05;69.95;100099.81;5081039;28;20171;-62
2023/09/16 08:19:05;;;;;;;10.57;8.23;;;;;;;22.09;69.92;100100.66;5070788;28;20213;-62
2023/09/16 08:21:30;;;;;;;10.50;8.13;;;;;;;22.04;70.67;100101.06;5070890;28;20162;-62
2023/09/16 08:23:56;;;;;;;9.77;7.60;;;;;;;22.08;70.46;100104.72;5071852;28;20175;-63
2023/09/16 08:26:21;;;;;;;10.50;8.77;;;;;;;21.95;72.12;100111.28;5080116;28;20171;-62
2023/09/16 08:28:46;;;;;;;10.10;7.43;;;;;;;22.00;70.96;100103.09;5073052;28;20174;-63
2023/09/16 08:31:12;;;;;;;10.10;7.43;;;;;;;22.05;70.81;100110.47;5091863;28;20165;-62
2023/09/16 08:33:37;;;;;;;10.70;8.13;;;;;;;22.09;70.81;100119.94;5111386;28;20209;-62
2023/09/16 08:36:03;;;;;;;12.60;8.03;;;;;;;22.09;70.60;100114.19;5077666;28;20179;-62
2023/09/16 08:38:28;;;;;;;12.10;9.67;;;;;;;22.00;72.20;100119.50;5070621;28;20562;-62
2023/09/16 08:41:00;;;;;;;9.77;7.73;;;;;;;22.03;72.38;100119.50;5075848;28;20183;-62
2023/09/16 08:43:33;;;;;;;9.30;8.30;;;;;;;22.06;71.17;100110.06;5053329;28;20175;-62
2023/09/16 08:46:02;;;;;;;11.57;8.10;;;;;;;22.01;71.65;100119.09;5037416;28;20413;-62
2023/09/16 08:48:31;;;;;;;14.90;8.80;;;;;;;22.09;70.96;100115.03;5051750;28;20449;-62
2023/09/16 08:50:57;;;;;;;13.07;8.27;;;;;;;22.12;72.14;100116.25;5056961;28;20984;-62
2023/09/16 08:53:22;;;;;;;13.67;9.43;;;;;;;21.96;72.99;100110.06;5056387;28;20445;-63
2023/09/16 08:55:48;;;;;;;11.03;8.20;;;;;;;22.10;71.32;100108.03;5076025;28;20167;-62
2023/09/16 08:58:14;;;;;;;13.60;8.37;;;;;;;22.11;71.61;100105.97;5074499;28;20177;-62
2023/09/16 09:00:40;;;;;;;11.93;8.70;;;;;;;22.18;71.53;100103.91;5073173;28;20193;-62
2023/09/16 09:03:05;;;;;;;11.07;8.60;;;;;;;22.21;71.70;100108.00;5090168;28;20447;-62
2023/09/16 09:05:32;;;;;;;9.90;7.90;;;;;;;22.22;72.87;100101.06;5054134;28;20316;-62
2023/09/16 09:07:58;;;;;;;15.43;8.73;;;;;;;22.21;71.83;100105.13;5051674;28;20210;-62
2023/09/16 09:10:24;;;;;;;10.53;8.03;;;;;;;22.21;72.11;100113.78;5074080;28;20436;-62
2023/09/16 09:12:49;;;;;;;12.83;9.13;;;;;;;22.15;72.07;100116.25;5090237;28;20482;-63
2023/09/16 09:15:15;;;;;;;12.10;8.30;;;;;;;22.07;72.40;100113.78;5072079;28;20178;-63
2023/09/16 09:17:45;;;;;;;10.60;8.20;;;;;;;22.07;72.85;100114.59;5091018;28;20594;-62
2023/09/16 09:20:24;;;;;;;10.90;9.10;;;;;;;22.14;72.55;100108.03;5075160;28;20494;-63
2023/09/16 09:22:50;;;;;;;10.83;7.53;;;;;;;22.20;71.79;100118.72;5051614;28;20836;-62
2023/09/16 09:25:20;;;;;;;11.50;8.07;;;;;;;22.26;71.20;100107.59;5035949;28;20405;-62
2023/09/16 09:27:47;;;;;;;8.23;6.60;;;;;;;22.28;71.56;100114.59;5040023;28;20456;-62
2023/09/16 09:30:12;;;;;;;9.60;7.37;;;;;;;22.26;71.42;100116.25;5097599;28;20420;-62
2023/09/16 09:32:38;;;;;;;11.77;7.97;;;;;;;22.30;72.16;100115.03;5082891;28;21036;-62
2023/09/16 09:35:07;;;;;;;11.83;8.60;;;;;;;22.29;71.72;100130.63;5035334;28;20233;-62
2023/09/16 09:37:33;;;;;;;12.17;8.57;;;;;;;22.30;71.53;100123.66;5079235;28;20178;-62
2023/09/16 09:40:12;;;;;;;11.60;7.13;;;;;;;22.35;72.35;100125.28;5089826;28;20447;-63
2023/09/16 09:42:50;;;;;;;9.90;7.77;;;;;;;22.35;72.04;100122.41;5089717;28;20806;-62
2023/09/16 09:45:17;;;;;;;11.17;8.10;;;;;;;22.36;71.96;100121.16;5089072;28;20462;-62
2023/09/16 09:47:42;;;;;;;12.80;9.57;;;;;;;22.25;73.26;100124.06;5082756;28;21185;-62
2023/09/16 09:50:15;;;;;;;16.30;8.97;;;;;;;22.24;73.29;100118.72;5092269;28;20495;-63
2023/09/16 09:52:48;;;;;;;11.80;8.40;;;;;;;22.23;73.55;100115.00;5080463;28;20229;-63
2023/09/16 09:55:20;;;;;;;11.17;7.73;;;;;;;22.29;72.10;100119.13;5078116;28;20420;-62
2023/09/16 09:57:46;;;;;;;12.53;8.67;;;;;;;22.33;72.30;100117.06;5050233;28;20769;-63
2023/09/16 10:00:19;;;;;;;10.30;7.37;;;;;;;22.39;72.20;100111.72;5067574;28;20409;-63
2023/09/16 10:02:44;;;;;;;10.63;8.20;;;;;;;22.39;72.03;100109.69;5036573;28;20183;-63
2023/09/16 10:05:15;;;;;;;15.87;9.07;;;;;;;22.30;73.17;100111.31;5072779;28;20766;-62
2023/09/16 10:07:44;;;;;;;22.20;9.00;;;;;;;22.29;73.70;100107.63;5087390;28;20193;-63
2023/09/16 10:10:23;;;;;;;11.43;8.57;;;;;;;22.38;72.32;100105.13;5081742;28;20897;-63
2023/09/16 10:12:54;;;;;;;12.27;7.90;;;;;;;22.43;72.24;100109.69;5072051;28;20963;-62
2023/09/16 10:15:26;;;;;;;10.60;8.50;;;;;;;22.46;73.27;100103.09;5075616;28;20446;-65
2023/09/16 10:17:52;;;;;;;10.30;7.07;;;;;;;22.45;73.54;100113.81;5110103;28;20759;-62
2023/09/16 10:20:17;;;;;;;9.03;7.80;;;;;;;22.47;72.80;100099.03;5075950;28;20432;-63
2023/09/16 10:22:43;;;;;;;15.80;8.00;;;;;;;22.52;72.14;100102.28;5073315;28;20167;-63
2023/09/16 10:25:08;;;;;;;13.20;8.47;;;;;;;22.50;71.97;100099.00;5082540;28;20226;-62
2023/09/16 10:27:39;;;;;;;11.67;8.03;;;;;;;22.49;72.63;100106.00;5091257;28;20346;-62
2023/09/16 10:30:05;;;;;;;16.33;8.10;;;;;;;22.52;72.99;100101.47;5089480;28;20174;-62
2023/09/16 10:32:30;;;;;;;8.77;7.13;;;;;;;22.55;72.65;100097.75;5071428;28;20512;-62
2023/09/16 10:34:56;;;;;;;12.20;8.23;;;;;;;22.54;73.21;100099.84;5088393;28;20930;-62
2023/09/16 10:37:21;;;;;;;8.20;6.93;;;;;;;22.55;72.23;100095.72;5067460;28;20183;-62
2023/09/16 10:39:47;;;;;;;9.70;7.37;;;;;;;22.63;72.13;100088.69;5057722;28;20528;-63
2023/09/16 10:42:16;;;;;;;11.90;7.60;;;;;;;22.66;72.17;100095.69;5051925;28;20170;-62
2023/09/16 10:44:41;;;;;;;10.87;7.63;;;;;;;22.64;72.43;100081.72;5085152;28;20175;-62
2023/09/16 10:47:07;;;;;;;15.67;7.20;;;;;;;22.69;72.31;100081.31;5051661;28;20551;-62
2023/09/16 10:49:32;;;;;;;11.67;7.80;;;;;;;22.68;71.94;100076.75;5058244;28;20170;-62
2023/09/16 10:52:04;;;;;;;11.20;7.60;;;;;;;22.73;71.94;100072.66;5087891;28;20663;-63
2023/09/16 10:54:35;;;;;;;10.73;7.63;;;;;;;22.76;71.35;100072.66;5052076;28;20179;-62
2023/09/16 10:57:03;;;;;;;11.77;7.90;;;;;;;22.78;71.36;100064.41;5070514;28;20423;-63
2023/09/16 10:59:29;;;;;;;13.13;6.70;;;;;;;22.84;70.67;100059.06;5081853;28;20423;-62
2023/09/16 11:02:02;;;;;;;8.80;6.73;;;;;;;22.78;71.05;100063.59;5060086;28;20437;-62
2023/09/16 11:04:27;;;;;;;12.70;7.77;;;;;;;22.81;71.06;100060.72;5071622;28;20182;-62
2023/09/16 11:06:53;;;;;;;11.00;7.70;;;;;;;22.82;71.14;100059.47;5108947;28;20427;-62
2023/09/16 11:09:22;;;;;;;12.30;6.60;;;;;;;22.84;71.15;100054.13;5091325;28;20176;-62
2023/09/16 11:11:50;;;;;;;11.40;7.73;;;;;;;22.98;70.68;100051.19;5086589;28;20317;-62
2023/09/16 11:14:15;;;;;;;12.20;7.80;;;;;;;23.04;70.57;100046.66;5088045;28;20439;-62
2023/09/16 11:16:45;;;;;;;10.77;6.87;;;;;;;22.97;71.24;100051.63;5071518;28;20470;-62
2023/09/16 11:19:14;;;;;;;10.20;7.07;;;;;;;22.95;71.72;100052.03;5088704;28;20182;-62